Terminal Aerodrome Forecast
Issued by NWS

Home | Current Version | Previous Version | Text Only | Print | Product List | Glossary Off
Versions: 1 2 3 4 5 6 7 8 9 10 11 12 13 14 15 16 17 18 19 20 21 22 23 24

000
FTUS43 KTOP 181121
TAFMHK
TAF
KMHK 181121Z 1812/1912 19012KT P6SM SCT250 WS009/20050KT
     FM181430 19019G28KT P6SM SCT250 WS020/19055KT
     FM181600 19024G40KT P6SM SCT250
     FM182300 19018G30KT P6SM SCT250
     FM190100 19016G24KT P6SM SCT025 WS020/20050KT
     FM190300 19016G24KT P6SM BKN008 WS020/21050KT
     FM190600 19016G24KT 6SM -DZ BKN008 WS020/21060KT=

USA.gov is the U.S. government's official web portal to all federal, state and local government web resources and services.